Time;durP1;ratioP1;P1;durP2;ratioP2;P2;SDS_P1;SDS_P2;PMS_P1;PMS_P2;Temp;Humidity;BMP_temperature;BMP_pressure;BME280_temperature;BME280_humidity;BME280_pressure;Samples;Min_cycle;Max_cycle;Signal;HPM_P1;HPM_P2
2023/01/18 00:00:36;;;;;;;;;;;;;;;0.49;99.06;93520.69;5073888;28;20391;-72
2023/01/18 00:03:02;;;;;;;;;;;;;;;0.48;99.44;93519.91;5073634;28;19955;-72
2023/01/18 00:05:28;;;;;;;;;;;;;;;0.48;99.40;93521.69;5073567;28;19965;-72
2023/01/18 00:07:54;;;;;;;;;;;;;;;0.44;99.61;93528.31;5073452;28;19948;-72
2023/01/18 00:10:21;;;;;;;;;;;;;;;0.42;99.70;93523.41;5073866;28;20362;-72
2023/01/18 00:12:47;;;;;;;;;;;;;;;0.40;99.21;93523.63;5073822;28;19955;-72
2023/01/18 00:15:13;;;;;;;;;;;;;;;0.39;100.00;93532.34;5074036;28;19950;-73
2023/01/18 00:17:50;;;;;;;;;;;;;;;0.39;99.94;93523.84;5073346;28;19979;-72
2023/01/18 00:20:17;;;;;;;;;;;;;;;0.40;100.00;93528.78;5073741;28;19958;-72
2023/01/18 00:22:43;;;;;;;;;;;;;;;0.42;100.00;93530.34;5073437;28;19946;-72
2023/01/18 00:25:09;;;;;;;;;;;;;;;0.42;99.97;93525.97;5073751;28;19959;-72
2023/01/18 00:27:36;;;;;;;;;;;;;;;0.43;100.00;93529.34;5073310;28;19962;-71
2023/01/18 00:30:06;;;;;;;;;;;;;;;0.42;100.00;93525.97;5073410;28;19953;-72
2023/01/18 00:32:32;;;;;;;;;;;;;;;0.43;100.00;93531.91;5073170;28;19948;-71
2023/01/18 00:34:59;;;;;;;;;;;;;;;0.43;100.00;93532.69;5073343;28;19951;-72
2023/01/18 00:37:26;;;;;;;;;;;;;;;0.44;100.00;93530.88;5073142;28;19969;-72
2023/01/18 00:39:51;;;;;;;;;;;;;;;0.45;99.91;93529.91;5073090;28;19952;-72
2023/01/18 00:45:02;;;;;;;;;;;;;;;0.48;99.78;93525.06;5066221;28;19964;-72
2023/01/18 00:47:28;;;;;;;;;;;;;;;0.48;99.36;93529.44;5073176;28;19952;-72
2023/01/18 00:49:54;;;;;;;;;;;;;;;0.47;99.56;93530.47;5073389;28;19949;-72
2023/01/18 00:52:20;;;;;;;;;;;;;;;0.46;99.92;93536.59;5073147;28;20004;-72
2023/01/18 00:54:46;;;;;;;;;;;;;;;0.45;100.00;93535.84;5073321;28;20003;-72
2023/01/18 00:57:12;;;;;;;;;;;;;;;0.44;100.00;93534.25;5073133;28;19964;-72
2023/01/18 00:59:38;;;;;;;;;;;;;;;0.45;100.00;93538.41;5073256;28;19979;-72
2023/01/18 01:02:04;;;;;;;;;;;;;;;0.46;100.00;93541.75;5073440;28;19989;-72
2023/01/18 01:07:14;;;;;;;;;;;;;;;0.46;100.00;93542.53;5073156;28;19951;-72
2023/01/18 01:09:41;;;;;;;;;;;;;;;0.46;100.00;93534.03;5073257;28;19947;-72
2023/01/18 01:26:11;;;;;;;;;;;;;;;0.49;99.63;93546.47;5076656;28;20470;-71
2023/01/18 01:28:37;;;;;;;;;;;;;;;0.49;100.00;93556.78;5076643;28;20331;-72
2023/01/18 01:31:04;;;;;;;;;;;;;;;0.47;99.78;93554.44;5076603;28;19950;-72
2023/01/18 01:33:31;;;;;;;;;;;;;;;0.46;100.00;93558.00;5076801;28;20027;-72
2023/01/18 01:35:57;;;;;;;;;;;;;;;0.45;100.00;93553.88;5076453;28;20357;-71
2023/01/18 01:38:24;;;;;;;;;;;;;;;0.46;100.00;93557.22;5076404;28;19956;-71
2023/01/18 01:40:56;;;;;;;;;;;;;;;0.46;100.00;93562.38;5076295;28;19954;-72
2023/01/18 01:43:47;;;;;;;;;;;;;;;0.46;100.00;93562.38;5076163;28;19960;-72
2023/01/18 01:46:19;;;;;;;;;;;;;;;0.47;100.00;93563.97;5075743;28;19971;-72
2023/01/18 01:48:46;;;;;;;;;;;;;;;0.47;100.00;93569.91;5076408;28;19952;-72
2023/01/18 01:51:13;;;;;;;;;;;;;;;0.45;100.00;93569.34;5076394;28;20322;-72
2023/01/18 01:53:39;;;;;;;;;;;;;;;0.46;100.00;93572.69;5076026;28;19957;-72
2023/01/18 01:56:06;;;;;;;;;;;;;;;0.45;100.00;93574.50;5076191;28;19981;-71
2023/01/18 01:58:32;;;;;;;;;;;;;;;0.45;100.00;93566.00;5075931;28;20403;-72
2023/01/18 02:00:58;;;;;;;;;;;;;;;0.44;100.00;93572.13;5076242;28;19960;-72
2023/01/18 02:03:24;;;;;;;;;;;;;;;0.43;100.00;93573.16;5076382;28;19946;-72
2023/01/18 02:06:00;;;;;;;;;;;;;;;0.42;100.00;93574.16;5076167;28;19954;-72
2023/01/18 02:08:27;;;;;;;;;;;;;;;0.40;100.00;93572.59;5075986;28;19955;-72
2023/01/18 02:10:53;;;;;;;;;;;;;;;0.36;100.00;93571.47;5075623;28;20412;-72
2023/01/18 02:13:21;;;;;;;;;;;;;;;0.35;100.00;93582.00;5076201;28;20201;-71
2023/01/18 02:16:12;;;;;;;;;;;;;;;0.32;100.00;93582.47;5061723;28;20331;-71
2023/01/18 02:19:07;;;;;;;;;;;;;;;0.31;100.00;93586.03;5075550;28;20454;-72
2023/01/18 02:21:39;;;;;;;;;;;;;;;0.31;100.00;93589.41;5062258;28;20316;-71
2023/01/18 02:24:33;;;;;;;;;;;;;;;0.32;100.00;93585.81;5075868;28;19961;-71
2023/01/18 02:27:02;;;;;;;;;;;;;;;0.32;100.00;93601.28;5065768;28;19952;-72
2023/01/18 02:29:45;;;;;;;;;;;;;;;0.33;100.00;93595.13;5075383;28;19958;-72
2023/01/18 02:32:30;;;;;;;;;;;;;;;0.33;100.00;93602.84;5075543;28;19957;-72
2023/01/18 02:34:56;;;;;;;;;;;;;;;0.33;100.00;93602.06;5075490;28;20297;-72
2023/01/18 02:37:35;;;;;;;;;;;;;;;0.31;100.00;93604.09;5075271;28;19967;-72
2023/01/18 02:40:01;;;;;;;;;;;;;;;0.29;100.00;93595.78;5075708;28;20408;-72
2023/01/18 02:48:09;;;;;;;;;;;;;;;0.30;100.00;93605.09;5075188;28;19950;-72
2023/01/18 02:50:35;;;;;;;;;;;;;;;0.29;100.00;93606.09;5064221;28;19959;-72
2023/01/18 02:53:01;;;;;;;;;;;;;;;0.29;100.00;93601.72;5074307;28;19963;-72
2023/01/18 02:55:26;;;;;;;;;;;;;;;0.28;100.00;93596.81;5075344;28;19950;-71
2023/01/18 02:57:54;;;;;;;;;;;;;;;0.20;100.00;93600.50;5074287;28;19966;-71
2023/01/18 03:00:22;;;;;;;;;;;;;;;0.13;100.00;93605.75;5074853;28;20305;-72
2023/01/18 03:02:48;;;;;;;;;;;;;;;0.12;100.00;93613.72;5074747;28;20287;-72
2023/01/18 03:05:15;;;;;;;;;;;;;;;0.11;100.00;93602.63;5075471;28;19957;-71
2023/01/18 03:07:47;;;;;;;;;;;;;;;0.11;100.00;93607.00;5075040;28;19974;-72
2023/01/18 03:10:14;;;;;;;;;;;;;;;0.12;100.00;93604.19;5074843;28;20306;-71
2023/01/18 03:12:49;;;;;;;;;;;;;;;0.12;100.00;93606.75;5074592;28;19973;-73
2023/01/18 03:15:17;;;;;;;;;;;;;;;0.13;100.00;93608.34;5066697;28;19965;-72
2023/01/18 03:17:49;;;;;;;;;;;;;;;0.16;100.00;93610.47;5058682;28;20437;-72
2023/01/18 03:20:16;;;;;;;;;;;;;;;0.16;100.00;93615.59;5074000;28;19947;-71
2023/01/18 03:25:33;;;;;;;;;;;;;;;0.10;100.00;93620.88;5074581;28;19947;-71
2023/01/18 03:33:46;;;;;;;;;;;;;;;0.04;100.00;93621.75;5074389;28;20325;-72
2023/01/18 03:36:16;;;;;;;;;;;;;;;-0.01;100.00;93620.63;5074461;28;19959;-72
2023/01/18 03:38:44;;;;;;;;;;;;;;;-0.03;100.00;93632.16;5074232;28;20394;-72
2023/01/18 03:41:10;;;;;;;;;;;;;;;-0.06;100.00;93617.16;5074233;28;19976;-71
2023/01/18 03:43:37;;;;;;;;;;;;;;;-0.11;100.00;93627.34;5073609;28;19961;-71
2023/01/18 03:46:03;;;;;;;;;;;;;;;-0.13;100.00;93634.50;5073927;28;19974;-72
2023/01/18 03:48:31;;;;;;;;;;;;;;;-0.16;100.00;93635.72;5074120;28;19953;-72
2023/01/18 03:51:01;;;;;;;;;;;;;;;-0.16;100.00;93637.53;5073957;28;19942;-72
2023/01/18 03:53:45;;;;;;;;;;;;;;;-0.17;100.00;93641.09;5074161;28;19952;-71
2023/01/18 03:56:30;;;;;;;;;;;;;;;-0.20;100.00;93642.31;5064070;28;19948;-71
2023/01/18 03:58:58;;;;;;;;;;;;;;;-0.22;100.00;93652.06;5073783;28;19954;-72
2023/01/18 04:01:24;;;;;;;;;;;;;;;-0.23;100.00;93656.44;5062921;28;19957;-72
2023/01/18 04:03:52;;;;;;;;;;;;;;;-0.24;100.00;93662.56;5073702;28;19956;-71
2023/01/18 04:06:21;;;;;;;;;;;;;;;-0.22;100.00;93659.78;5073664;28;20324;-72
2023/01/18 04:08:50;;;;;;;;;;;;;;;-0.20;100.00;93657.78;5073636;28;19951;-71
2023/01/18 04:11:16;;;;;;;;;;;;;;;-0.16;100.00;93679.50;5073451;28;20397;-72
2023/01/18 04:13:42;;;;;;;;;;;;;;;-0.15;100.00;93664.84;5073906;28;20043;-72
2023/01/18 04:16:08;;;;;;;;;;;;;;;-0.11;100.00;93678.84;5073444;28;19982;-72
2023/01/18 04:18:34;;;;;;;;;;;;;;;-0.10;100.00;93686.34;5073678;28;20046;-72
2023/01/18 04:21:00;;;;;;;;;;;;;;;-0.07;100.00;93682.56;5073535;28;19999;-72
2023/01/18 04:23:26;;;;;;;;;;;;;;;-0.06;100.00;93691.88;5073486;28;19961;-72
2023/01/18 04:25:52;;;;;;;;;;;;;;;-0.06;100.00;93689.28;5062926;28;19953;-72
2023/01/18 04:28:24;;;;;;;;;;;;;;;-0.09;100.00;93687.13;5072671;28;20021;-72
2023/01/18 04:30:50;;;;;;;;;;;;;;;-0.14;100.00;93690.38;5073631;28;19959;-72
2023/01/18 04:33:17;;;;;;;;;;;;;;;-0.16;100.00;93694.19;5073432;28;19948;-72
2023/01/18 04:35:43;;;;;;;;;;;;;;;-0.18;100.00;93686.66;5072698;28;19948;-72
2023/01/18 04:38:08;;;;;;;;;;;;;;;-0.18;100.00;93689.25;5073350;28;19969;-71
2023/01/18 04:40:34;;;;;;;;;;;;;;;-0.19;100.00;93689.44;5073778;28;19985;-72
2023/01/18 04:43:00;;;;;;;;;;;;;;;-0.23;100.00;93694.28;5073605;28;19981;-72
2023/01/18 04:45:26;;;;;;;;;;;;;;;-0.33;100.00;93705.09;5073594;28;20043;-72
2023/01/18 04:47:52;;;;;;;;;;;;;;;-0.41;100.00;93698.44;5073228;28;20344;-71
2023/01/18 04:50:18;;;;;;;;;;;;;;;-0.44;100.00;93706.59;5073574;28;19960;-71
2023/01/18 04:52:43;;;;;;;;;;;;;;;-0.45;100.00;93714.53;5073440;28;19952;-71
2023/01/18 04:55:14;;;;;;;;;;;;;;;-0.49;100.00;93726.25;5075567;28;20362;-72
2023/01/18 04:57:41;;;;;;;;;;;;;;;-0.56;100.00;93715.28;5077629;28;20417;-71
2023/01/18 05:00:08;;;;;;;;;;;;;;;-0.62;100.00;93733.13;5077300;28;19942;-71
2023/01/18 05:02:34;;;;;;;;;;;;;;;-0.66;100.00;93733.78;5076338;28;19947;-72
2023/01/18 05:05:00;;;;;;;;;;;;;;;-0.70;100.00;93742.94;5077024;28;19970;-72
2023/01/18 05:07:25;;;;;;;;;;;;;;;-0.75;100.00;93751.31;5077122;28;20383;-72
2023/01/18 05:09:51;;;;;;;;;;;;;;;-0.75;100.00;93758.25;5077093;28;20305;-72
2023/01/18 05:12:17;;;;;;;;;;;;;;;-0.76;100.00;93765.16;5076915;28;19992;-72
2023/01/18 05:14:43;;;;;;;;;;;;;;;-0.76;100.00;93770.28;5077315;28;19995;-71
2023/01/18 05:17:09;;;;;;;;;;;;;;;-0.77;100.00;93775.69;5077109;28;20381;-72
2023/01/18 05:19:35;;;;;;;;;;;;;;;-0.82;100.00;93789.16;5077001;28;20371;-71
2023/01/18 05:22:01;;;;;;;;;;;;;;;-0.90;100.00;93787.66;5076946;28;19957;-72
2023/01/18 05:24:27;;;;;;;;;;;;;;;-0.96;100.00;93775.66;5076794;28;19957;-71
2023/01/18 05:26:52;;;;;;;;;;;;;;;-0.97;100.00;93793.84;5076524;28;19952;-71
2023/01/18 05:29:18;;;;;;;;;;;;;;;-0.98;100.00;93798.22;5076863;28;19952;-71
2023/01/18 05:31:44;;;;;;;;;;;;;;;-0.94;100.00;93803.75;5076657;28;19983;-72
2023/01/18 05:34:10;;;;;;;;;;;;;;;-0.90;100.00;93810.03;5076536;28;19962;-72
2023/01/18 05:36:36;;;;;;;;;;;;;;;-0.87;100.00;93814.75;5076357;28;20047;-72
2023/01/18 05:39:02;;;;;;;;;;;;;;;-0.80;100.00;93810.31;5076345;28;19952;-72
2023/01/18 05:41:27;;;;;;;;;;;;;;;-0.76;100.00;93813.25;5074842;28;20022;-72
2023/01/18 05:43:53;;;;;;;;;;;;;;;-0.76;100.00;93819.19;5075594;28;19965;-72
2023/01/18 05:46:19;;;;;;;;;;;;;;;-0.76;100.00;93821.75;5075626;28;20391;-71
2023/01/18 05:48:45;;;;;;;;;;;;;;;-0.77;100.00;93829.72;5076370;28;19959;-71
2023/01/18 05:51:11;;;;;;;;;;;;;;;-0.83;100.00;93834.69;5076237;28;20036;-72
2023/01/18 05:53:38;;;;;;;;;;;;;;;-0.87;100.00;93843.81;5076240;28;19946;-72
2023/01/18 05:56:06;;;;;;;;;;;;;;;-0.86;100.00;93850.56;5076032;28;20412;-72
2023/01/18 05:58:31;;;;;;;;;;;;;;;-0.82;100.00;93843.19;5076421;28;19963;-71
2023/01/18 06:00:57;;;;;;;;;;;;;;;-0.82;100.00;93863.75;5076070;28;20000;-72
2023/01/18 06:03:24;;;;;;;;;;;;;;;-0.84;100.00;93864.00;5076194;28;19954;-72
2023/01/18 06:05:50;;;;;;;;;;;;;;;-0.87;100.00;93873.91;5075406;28;19959;-72
2023/01/18 06:08:16;;;;;;;;;;;;;;;-0.89;100.00;93876.69;5076407;28;19954;-72
2023/01/18 06:10:42;;;;;;;;;;;;;;;-0.88;100.00;93886.00;5075622;28;19947;-72
2023/01/18 06:13:09;;;;;;;;;;;;;;;-0.94;100.00;93886.03;5074937;28;19951;-72
2023/01/18 06:15:35;;;;;;;;;;;;;;;-0.99;100.00;93888.44;5075769;28;19961;-72
2023/01/18 06:18:00;;;;;;;;;;;;;;;-1.02;100.00;93902.50;5074558;28;19966;-72
2023/01/18 06:20:29;;;;;;;;;;;;;;;-1.06;100.00;93904.72;5075517;28;20327;-72
2023/01/18 06:22:56;;;;;;;;;;;;;;;-1.11;100.00;93916.63;5075956;28;19942;-72
2023/01/18 06:25:22;;;;;;;;;;;;;;;-1.12;100.00;93920.19;5075662;28;19959;-72
2023/01/18 06:27:48;;;;;;;;;;;;;;;-1.15;100.00;93921.41;5075914;28;19953;-72
2023/01/18 06:30:14;;;;;;;;;;;;;;;-1.15;100.00;93931.69;5075934;28;19958;-72
2023/01/18 06:32:40;;;;;;;;;;;;;;;-1.19;100.00;93929.72;5075459;28;19953;-72
2023/01/18 06:35:06;;;;;;;;;;;;;;;-1.20;100.00;93936.63;5075519;28;20017;-72
2023/01/18 06:37:32;;;;;;;;;;;;;;;-1.19;100.00;93938.22;5074037;28;19966;-72
2023/01/18 06:39:58;;;;;;;;;;;;;;;-1.16;100.00;93950.66;5075298;28;19949;-72
2023/01/18 06:42:24;;;;;;;;;;;;;;;-1.18;100.00;93952.66;5075232;28;19967;-72
2023/01/18 06:44:50;;;;;;;;;;;;;;;-1.18;100.00;93947.50;5075482;28;19967;-72
2023/01/18 06:47:18;;;;;;;;;;;;;;;-1.20;100.00;93953.84;5108060;28;19979;-72
2023/01/18 06:49:47;;;;;;;;;;;;;;;-1.26;100.00;93963.97;5075272;28;19951;-72
2023/01/18 06:52:13;;;;;;;;;;;;;;;-1.31;100.00;93968.16;5075470;28;19955;-72
2023/01/18 06:54:39;;;;;;;;;;;;;;;-1.35;100.00;93969.56;5074937;28;19961;-72
2023/01/18 06:57:05;;;;;;;;;;;;;;;-1.33;100.00;93972.72;5075208;28;19961;-72
2023/01/18 06:59:31;;;;;;;;;;;;;;;-1.33;100.00;93988.91;5074994;28;19960;-72
2023/01/18 07:01:57;;;;;;;;;;;;;;;-1.34;100.00;93984.78;5075048;28;19954;-73
2023/01/18 07:04:22;;;;;;;;;;;;;;;-1.36;100.00;93997.03;5074692;28;19952;-72
2023/01/18 07:06:48;;;;;;;;;;;;;;;-1.39;100.00;93991.50;5075091;28;19945;-72
2023/01/18 07:09:14;;;;;;;;;;;;;;;-1.37;100.00;94010.88;5074758;28;19952;-72
2023/01/18 07:11:42;;;;;;;;;;;;;;;-1.37;100.00;94007.53;5074728;28;19988;-72
2023/01/18 07:14:11;;;;;;;;;;;;;;;-1.37;100.00;94018.59;5074518;28;19958;-72
2023/01/18 07:16:37;;;;;;;;;;;;;;;-1.37;100.00;94020.38;5073924;28;20425;-72
2023/01/18 07:19:03;;;;;;;;;;;;;;;-1.39;100.00;94018.00;5074556;28;19970;-72
2023/01/18 07:21:29;;;;;;;;;;;;;;;-1.40;100.00;94028.50;5074508;28;19954;-72
2023/01/18 07:23:56;;;;;;;;;;;;;;;-1.41;100.00;94032.84;5074742;28;19942;-71
2023/01/18 07:26:22;;;;;;;;;;;;;;;-1.42;100.00;94033.84;5074392;28;19964;-72
2023/01/18 07:28:48;;;;;;;;;;;;;;;-1.41;100.00;94043.13;5073938;28;19957;-72
2023/01/18 07:31:15;;;;;;;;;;;;;;;-1.42;100.00;94044.13;5074214;28;19958;-72
2023/01/18 07:33:41;;;;;;;;;;;;;;;-1.38;100.00;94052.22;5073916;28;20406;-72
2023/01/18 07:36:09;;;;;;;;;;;;;;;-1.32;100.00;94051.41;5074461;28;19949;-72
2023/01/18 07:38:36;;;;;;;;;;;;;;;-1.24;100.00;94054.56;5074123;28;19966;-72
2023/01/18 07:41:07;;;;;;;;;;;;;;;-1.20;100.00;94062.63;5074299;28;19954;-72
2023/01/18 07:43:33;;;;;;;;;;;;;;;-1.12;100.00;94064.97;5074165;28;19947;-72
2023/01/18 07:45:59;;;;;;;;;;;;;;;-1.08;100.00;94063.56;5073963;28;19953;-72
2023/01/18 07:48:25;;;;;;;;;;;;;;;-1.02;100.00;94067.13;5074095;28;20390;-72
2023/01/18 07:51:01;;;;;;;;;;;;;;;-0.92;100.00;94071.84;5074186;28;19955;-72
2023/01/18 07:53:27;;;;;;;;;;;;;;;-0.83;100.00;94073.94;5073837;28;19953;-73
2023/01/18 07:55:57;;;;;;;;;;;;;;;-0.73;100.00;94080.44;5074104;28;19950;-72
2023/01/18 07:58:23;;;;;;;;;;;;;;;-0.65;100.00;94078.41;5073841;28;19966;-72
2023/01/18 08:00:49;;;;;;;;;;;;;;;-0.58;100.00;94085.31;5073852;28;19994;-72
2023/01/18 08:03:16;;;;;;;;;;;;;;;-0.51;100.00;94098.94;5072040;28;19961;-72
2023/01/18 08:05:42;;;;;;;;;;;;;;;-0.45;100.00;94101.47;5073332;28;19952;-72
2023/01/18 08:08:09;;;;;;;;;;;;;;;-0.39;100.00;94105.00;5073829;28;19943;-72
2023/01/18 08:10:35;;;;;;;;;;;;;;;-0.32;100.00;94113.47;5072986;28;19954;-72
2023/01/18 08:13:02;;;;;;;;;;;;;;;-0.30;99.82;94103.75;5073825;28;20439;-72
2023/01/18 08:15:28;;;;;;;;;;;;;;;-0.28;99.63;94113.84;5073560;28;19952;-72
2023/01/18 08:17:54;;;;;;;;;;;;;;;-0.25;100.00;94119.38;5073905;28;19960;-72
2023/01/18 08:20:20;;;;;;;;;;;;;;;-0.22;99.97;94124.09;5073005;28;19951;-72
2023/01/18 08:22:47;;;;;;;;;;;;;;;-0.23;98.29;94121.75;5073493;28;19960;-72
2023/01/18 08:25:13;;;;;;;;;;;;;;;-0.30;98.20;94126.91;5073867;28;19958;-72
2023/01/18 08:27:39;;;;;;;;;;;;;;;-0.35;98.80;94137.06;5073175;28;19956;-72
2023/01/18 08:30:05;;;;;;;;;;;;;;;-0.34;99.92;94148.94;5073715;28;20422;-72
2023/01/18 08:32:31;;;;;;;;;;;;;;;-0.32;99.51;94149.50;5073377;28;19946;-72
2023/01/18 08:34:59;;;;;;;;;;;;;;;-0.31;99.14;94150.31;5073661;28;20465;-74
2023/01/18 08:37:25;;;;;;;;;;;;;;;-0.31;98.68;94156.25;5073756;28;19967;-72
2023/01/18 08:39:51;;;;;;;;;;;;;;;-0.28;99.40;94158.41;5073679;28;19952;-73
2023/01/18 08:42:16;;;;;;;;;;;;;;;-0.20;99.60;94162.53;5073430;28;19986;-72
2023/01/18 08:44:43;;;;;;;;;;;;;;;-0.11;97.60;94157.91;5073631;28;19954;-72
2023/01/18 08:47:09;;;;;;;;;;;;;;;-0.09;97.13;94161.88;5074056;28;19958;-72
2023/01/18 08:49:34;;;;;;;;;;;;;;;-0.07;97.11;94174.53;5073239;28;19951;-72
2023/01/18 08:52:00;;;;;;;;;;;;;;;-0.07;97.25;94177.91;5073677;28;19957;-72
2023/01/18 08:54:26;;;;;;;;;;;;;;;-0.07;98.25;94183.06;5071843;28;19960;-73
2023/01/18 08:56:52;;;;;;;;;;;;;;;-0.02;97.13;94183.25;5073539;28;19995;-72
2023/01/18 08:59:18;;;;;;;;;;;;;;;0.03;96.35;94184.41;5073405;28;20025;-72
2023/01/18 09:01:44;;;;;;;;;;;;;;;0.01;96.80;94194.91;5073137;28;19971;-72
2023/01/18 09:04:10;;;;;;;;;;;;;;;0.00;95.67;94188.19;5073153;28;20411;-72
2023/01/18 09:06:36;;;;;;;;;;;;;;;-0.01;95.77;94197.69;5105673;28;19995;-72
2023/01/18 09:09:02;;;;;;;;;;;;;;;-0.01;95.52;94200.25;5105679;28;20034;-73
2023/01/18 09:11:28;;;;;;;;;;;;;;;-0.01;96.16;94208.00;5073130;28;19958;-72
2023/01/18 09:13:54;;;;;;;;;;;;;;;0.03;97.24;94223.84;5073287;28;19949;-72
2023/01/18 09:16:21;;;;;;;;;;;;;;;0.09;97.43;94233.31;5073184;28;19960;-72
2023/01/18 09:18:48;;;;;;;;;;;;;;;0.14;95.90;94230.91;5071703;28;20335;-72
2023/01/18 09:21:16;;;;;;;;;;;;;;;0.16;95.52;94228.13;5072903;28;19952;-72
2023/01/18 09:23:42;;;;;;;;;;;;;;;0.20;95.06;94226.72;5072853;28;20397;-73
2023/01/18 09:26:15;;;;;;;;;;;;;;;0.20;94.50;94230.06;5073151;28;20390;-72
2023/01/18 09:28:42;;;;;;;;;;;;;;;0.19;94.86;94231.06;5072829;28;19950;-72
2023/01/18 09:31:08;;;;;;;;;;;;;;;0.11;92.90;94223.59;5072947;28;19954;-72
2023/01/18 09:33:34;;;;;;;;;;;;;;;0.09;94.48;94250.56;5072849;28;20035;-72
2023/01/18 09:36:01;;;;;;;;;;;;;;;0.15;95.72;94270.38;5072690;28;20447;-72
2023/01/18 09:38:28;;;;;;;;;;;;;;;0.27;94.19;94257.59;5072864;28;19970;-72
2023/01/18 09:40:54;;;;;;;;;;;;;;;0.37;94.50;94274.19;5074942;28;19949;-72
2023/01/18 09:43:32;;;;;;;;;;;;;;;0.48;93.87;94262.41;5076861;28;20023;-73
2023/01/18 09:45:58;;;;;;;;;;;;;;;0.55;92.93;94262.38;5076651;28;19948;-72
2023/01/18 09:48:29;;;;;;;;;;;;;;;0.56;94.33;94274.25;5076254;28;19951;-72
2023/01/18 09:50:58;;;;;;;;;;;;;;;0.53;92.71;94260.00;5076114;28;19946;-72
2023/01/18 09:53:33;;;;;;;;;;;;;;;0.48;93.07;94264.19;5076443;28;19956;-72
2023/01/18 09:56:06;;;;;;;;;;;;;;;0.52;94.60;94283.41;5076213;28;20404;-72
2023/01/18 09:58:49;;;;;;;;;;;;;;;0.61;93.19;94274.44;5076383;28;19962;-72
2023/01/18 10:01:20;;;;;;;;;;;;;;;0.69;93.91;94284.47;5060783;28;19943;-72
2023/01/18 10:03:52;;;;;;;;;;;;;;;0.81;92.77;94287.19;5076301;28;19956;-72
2023/01/18 10:06:27;;;;;;;;;;;;;;;0.88;94.14;94292.28;5075879;28;19954;-72
2023/01/18 10:09:03;;;;;;;;;;;;;;;0.92;93.95;94296.03;5075883;28;19947;-72
2023/01/18 10:11:54;;;;;;;;;;;;;;;1.01;93.76;94300.72;5075897;28;20325;-72
2023/01/18 10:14:27;;;;;;;;;;;;;;;1.05;91.71;94285.63;5075789;28;19948;-72
2023/01/18 10:16:58;;;;;;;;;;;;;;;1.01;93.66;94303.31;5075794;28;19972;-72
2023/01/18 10:19:26;;;;;;;;;;;;;;;1.03;91.97;94297.94;5075652;28;19975;-72
2023/01/18 10:21:52;;;;;;;;;;;;;;;0.93;91.79;94302.78;5074484;28;20350;-73
2023/01/18 10:24:21;;;;;;;;;;;;;;;0.86;93.25;94318.31;5075717;28;20042;-72
2023/01/18 10:26:50;;;;;;;;;;;;;;;0.87;92.52;94313.94;5075982;28;19947;-72
2023/01/18 10:29:31;;;;;;;;;;;;;;;0.88;93.23;94323.25;5075961;28;19969;-72
2023/01/18 10:32:03;;;;;;;;;;;;;;;0.90;92.91;94322.03;5075474;28;19945;-72
2023/01/18 10:34:31;;;;;;;;;;;;;;;0.92;93.41;94325.19;5075479;28;20319;-72
2023/01/18 10:37:13;;;;;;;;;;;;;;;0.87;93.02;94324.25;5075753;28;20409;-72
2023/01/18 10:39:42;;;;;;;;;;;;;;;0.81;91.74;94318.13;5063875;28;19973;-72
2023/01/18 10:42:34;;;;;;;;;;;;;;;0.73;92.76;94331.28;5075025;28;19978;-72
2023/01/18 10:45:02;;;;;;;;;;;;;;;0.71;93.86;94343.59;5071997;28;20451;-71
2023/01/18 10:47:28;;;;;;;;;;;;;;;0.73;93.00;94334.66;5075293;28;19955;-72
2023/01/18 10:49:58;;;;;;;;;;;;;;;0.67;92.70;94329.53;5075372;28;20411;-72
2023/01/18 10:52:28;;;;;;;;;;;;;;;0.66;92.85;94339.06;5074977;28;20401;-72
2023/01/18 10:54:56;;;;;;;;;;;;;;;0.66;94.57;94356.34;5074156;28;19956;-72
2023/01/18 10:57:42;;;;;;;;;;;;;;;0.67;94.49;94355.34;5074986;28;20325;-72
2023/01/18 11:00:20;;;;;;;;;;;;;;;0.68;91.38;94344.81;5075029;28;19959;-72
2023/01/18 11:02:48;;;;;;;;;;;;;;;0.62;92.68;94353.38;5075266;28;19941;-72
2023/01/18 11:05:22;;;;;;;;;;;;;;;0.59;92.34;94356.38;5074857;28;19974;-72
2023/01/18 11:08:08;;;;;;;;;;;;;;;0.60;94.40;94379.38;5074707;28;19946;-72
2023/01/18 11:10:36;;;;;;;;;;;;;;;0.66;93.44;94374.41;5074856;28;19959;-72
2023/01/18 11:13:02;;;;;;;;;;;;;;;0.68;93.90;94378.34;5074780;28;19966;-71
2023/01/18 11:15:29;;;;;;;;;;;;;;;0.73;93.05;94378.50;5074829;28;19957;-72
2023/01/18 11:17:59;;;;;;;;;;;;;;;0.79;93.05;94372.50;5074709;28;19968;-72
2023/01/18 11:20:36;;;;;;;;;;;;;;;0.88;92.59;94374.84;5074371;28;19944;-72
2023/01/18 11:23:08;;;;;;;;;;;;;;;0.97;93.48;94376.97;5074747;28;19946;-71
2023/01/18 11:25:36;;;;;;;;;;;;;;;0.99;92.25;94374.19;5074739;28;19957;-71
2023/01/18 11:28:03;;;;;;;;;;;;;;;1.10;91.33;94370.16;5074463;28;19953;-72
2023/01/18 11:30:29;;;;;;;;;;;;;;;1.19;92.19;94380.00;5061766;28;20334;-71
2023/01/18 11:32:58;;;;;;;;;;;;;;;1.25;91.75;94388.69;5074272;28;19957;-72
2023/01/18 11:35:32;;;;;;;;;;;;;;;1.27;91.94;94386.69;5074013;28;19955;-71
2023/01/18 11:37:59;;;;;;;;;;;;;;;1.31;91.78;94397.41;5074333;28;19947;-71
2023/01/18 11:40:26;;;;;;;;;;;;;;;1.26;88.37;94363.66;5073896;28;19951;-72
2023/01/18 11:42:58;;;;;;;;;;;;;;;1.07;90.33;94384.28;5074009;28;19981;-72
2023/01/18 11:45:28;;;;;;;;;;;;;;;0.96;91.62;94403.78;5074264;28;19960;-72
2023/01/18 11:47:54;;;;;;;;;;;;;;;0.90;89.73;94385.75;5074362;28;19953;-72
2023/01/18 11:50:20;;;;;;;;;;;;;;;0.85;90.33;94394.13;5074479;28;19947;-72
2023/01/18 11:52:55;;;;;;;;;;;;;;;0.84;91.52;94397.72;5074118;28;19946;-71
2023/01/18 11:55:30;;;;;;;;;;;;;;;0.89;91.24;94407.41;5074166;28;19958;-71
2023/01/18 11:57:56;;;;;;;;;;;;;;;0.89;92.01;94405.63;5073255;28;20355;-72
2023/01/18 12:00:27;;;;;;;;;;;;;;;0.89;89.17;94391.94;5073891;28;19972;-71
2023/01/18 12:03:19;;;;;;;;;;;;;;;0.85;89.85;94396.72;5073646;28;20400;-72
2023/01/18 12:06:17;;;;;;;;;;;;;;;0.90;89.63;94398.66;5071110;28;20329;-71
2023/01/18 12:08:53;;;;;;;;;;;;;;;1.00;91.76;94419.63;5029087;28;19958;-72
2023/01/18 12:11:24;;;;;;;;;;;;;;;1.08;90.64;94408.28;5073699;28;19977;-71
2023/01/18 12:13:58;;;;;;;;;;;;;;;1.10;89.45;94407.06;5073559;28;20326;-71
2023/01/18 12:16:43;;;;;;;;;;;;;;;1.09;89.73;94407.28;5073841;28;19957;-71
2023/01/18 12:19:08;;;;;;;;;;;;;;;1.14;91.57;94433.25;5073509;28;19966;-71
2023/01/18 12:21:43;;;;;;;;;;;;;;;1.20;91.09;94429.84;5073673;28;19946;-71
2023/01/18 12:24:15;;;;;;;;;;;;;;;1.25;88.30;94409.34;5062618;28;19969;-71
2023/01/18 12:26:51;;;;;;;;;;;;;;;1.14;88.48;94415.19;5073679;28;20309;-71
2023/01/18 12:29:25;;;;;;;;;;;;;;;0.94;86.41;94403.19;5073413;28;19951;-71
2023/01/18 12:32:04;;;;;;;;;;;;;;;0.84;85.51;94397.72;5073713;28;19952;-71
2023/01/18 12:34:39;;;;;;;;;;;;;;;0.83;89.55;94442.56;5073338;28;19957;-71
2023/01/18 12:37:24;;;;;;;;;;;;;;;0.87;89.21;94442.94;5072444;28;20416;-71
2023/01/18 12:40:07;;;;;;;;;;;;;;;0.94;88.13;94423.84;5073678;28;19960;-71
2023/01/18 12:42:52;;;;;;;;;;;;;;;0.96;90.01;94457.97;5073699;28;19977;-71
2023/01/18 12:45:33;;;;;;;;;;;;;;;0.94;88.70;94441.09;5059724;28;19952;-71
2023/01/18 12:48:20;;;;;;;;;;;;;;;0.88;87.53;94431.63;5073303;28;20415;-71
2023/01/18 12:50:48;;;;;;;;;;;;;;;0.81;88.30;94441.97;5073677;28;19953;-72
2023/01/18 12:53:16;;;;;;;;;;;;;;;0.74;88.95;94452.34;5073389;28;19952;-71
2023/01/18 12:55:43;;;;;;;;;;;;;;;0.65;86.13;94440.69;5073451;28;19954;-71
2023/01/18 12:58:14;;;;;;;;;;;;;;;0.61;87.17;94460.13;5073188;28;19941;-71
2023/01/18 13:00:45;;;;;;;;;;;;;;;0.62;89.27;94473.81;5073301;28;20436;-71
2023/01/18 13:03:21;;;;;;;;;;;;;;;0.63;87.78;94470.22;5073422;28;19956;-71
2023/01/18 13:05:56;;;;;;;;;;;;;;;0.66;88.47;94472.41;5073110;28;19954;-71
2023/01/18 13:08:22;;;;;;;;;;;;;;;0.74;89.77;94487.66;5073529;28;20433;-71
2023/01/18 13:10:49;;;;;;;;;;;;;;;0.81;89.32;94481.47;5072838;28;19944;-71
2023/01/18 13:13:21;;;;;;;;;;;;;;;0.90;88.63;94481.22;5073155;28;19961;-71
2023/01/18 13:15:58;;;;;;;;;;;;;;;0.90;88.11;94473.47;5074856;28;19943;-71
2023/01/18 13:18:38;;;;;;;;;;;;;;;0.89;87.09;94470.13;5077299;28;20324;-72
2023/01/18 13:21:30;;;;;;;;;;;;;;;0.82;86.60;94471.94;5076789;28;20427;-71
2023/01/18 13:24:06;;;;;;;;;;;;;;;0.72;86.44;94476.75;5076623;28;20297;-71
2023/01/18 13:26:33;;;;;;;;;;;;;;;0.70;87.65;94491.66;5076959;28;19953;-71
2023/01/18 13:29:09;;;;;;;;;;;;;;;0.60;86.35;94490.28;5076684;28;19943;-71
2023/01/18 13:31:35;;;;;;;;;;;;;;;0.59;87.11;94501.59;5076418;28;19945;-71